Time;durP1;ratioP1;P1;durP2;ratioP2;P2;SDS_P1;SDS_P2;PMS_P1;PMS_P2;Temp;Humidity;BMP_temperature;BMP_pressure;BME280_temperature;BME280_humidity;BME280_pressure;Samples;Min_cycle;Max_cycle;Signal;HPM_P1;HPM_P2
2022/01/12 00:01:19;;;;;;;41.92;20.25;;;14.90;69.00;;;;;;4121209;28;20046;-61
2022/01/12 00:03:44;;;;;;;32.70;18.13;;;14.90;69.00;;;;;;4112749;28;20051;-61
2022/01/12 00:06:07;;;;;;;34.70;17.73;;;14.90;68.80;;;;;;4099235;28;20051;-61
2022/01/12 00:08:31;;;;;;;33.88;18.25;;;14.90;68.70;;;;;;4097000;28;20078;-62
2022/01/12 00:10:56;;;;;;;39.28;19.30;;;15.00;68.70;;;;;;4096914;28;20074;-62
2022/01/12 00:13:19;;;;;;;42.72;20.38;;;15.00;68.60;;;;;;4096707;28;20082;-65
2022/01/12 00:15:43;;;;;;;35.50;18.85;;;15.00;68.60;;;;;;4096591;28;20491;-61
2022/01/12 00:18:07;;;;;;;36.25;20.05;;;14.90;68.60;;;;;;4096788;28;20496;-61
2022/01/12 00:20:30;;;;;;;34.85;19.65;;;14.90;68.80;;;;;;4113288;28;20050;-61
2022/01/12 00:22:53;;;;;;;33.33;18.63;;;14.90;68.80;;;;;;4112726;28;20035;-61
2022/01/12 00:25:29;;;;;;;33.17;19.25;;;14.90;68.70;;;;;;4112754;28;20470;-61
2022/01/12 00:33:22;;;;;;;43.33;21.07;;;15.10;68.70;;;;;;4126847;28;20125;-61
2022/01/12 00:35:47;;;;;;;33.45;18.55;;;15.10;68.50;;;;;;4125659;28;20490;-69
2022/01/12 00:38:11;;;;;;;38.08;20.27;;;15.10;68.20;;;;;;4125085;28;20046;-60
2022/01/12 00:40:39;;;;;;;41.25;20.35;;;15.10;68.10;;;;;;4094935;28;20157;-61
2022/01/12 00:43:03;;;;;;;39.60;20.05;;;15.10;68.00;;;;;;4095365;28;20047;-61
2022/01/12 00:45:26;;;;;;;36.38;18.05;;;15.20;68.00;;;;;;4095279;28;20043;-61
2022/01/12 00:47:50;;;;;;;35.88;20.30;;;15.20;67.80;;;;;;4096549;28;20094;-68
2022/01/12 00:50:14;;;;;;;37.53;19.05;;;15.20;67.60;;;;;;4128095;28;20046;-69
2022/01/12 00:52:37;;;;;;;34.53;19.42;;;15.30;67.50;;;;;;4125678;28;20058;-68
2022/01/12 00:55:00;;;;;;;35.55;19.23;;;15.20;67.40;;;;;;4111120;28;20046;-68
2022/01/12 00:57:23;;;;;;;41.95;18.73;;;15.20;67.30;;;;;;4111917;28;20054;-68
2022/01/12 00:59:46;;;;;;;46.22;21.60;;;15.20;67.50;;;;;;4124412;28;20046;-68
2022/01/12 01:02:09;;;;;;;38.22;19.55;;;15.20;67.60;;;;;;4126519;28;20050;-68
2022/01/12 01:04:32;;;;;;;42.08;20.63;;;15.10;67.60;;;;;;4126357;28;20058;-67
2022/01/12 01:06:57;;;;;;;41.25;21.05;;;15.10;67.90;;;;;;4126686;28;20050;-69
2022/01/12 01:09:20;;;;;;;38.28;19.58;;;15.10;67.90;;;;;;4138341;28;20619;-68
2022/01/12 01:11:43;;;;;;;45.38;21.38;;;15.10;69.00;;;;;;4121445;28;20049;-67
2022/01/12 01:14:15;;;;;;;38.03;20.17;;;15.20;68.20;;;;;;4126877;28;20054;-69
2022/01/12 01:16:51;;;;;;;40.92;20.00;;;15.30;67.80;;;;;;4125793;28;20250;-69
2022/01/12 01:27:22;;;;;;;48.75;20.73;;;15.60;66.30;;;;;;4112591;28;20420;-68
2022/01/12 01:29:47;;;;;;;43.08;19.95;;;15.60;66.30;;;;;;4122858;28;20506;-61
2022/01/12 01:32:12;;;;;;;37.95;18.60;;;15.60;66.40;;;;;;4127566;28;20081;-62
2022/01/12 01:34:42;;;;;;;42.65;19.65;;;15.50;66.30;;;;;;4126501;28;20054;-61
2022/01/12 01:37:07;;;;;;;45.80;21.15;;;15.50;66.50;;;;;;4139870;28;20461;-61
2022/01/12 01:39:30;;;;;;;39.15;20.13;;;15.50;66.80;;;;;;4125830;28;20053;-61
2022/01/12 01:41:59;;;;;;;41.40;21.45;;;15.40;66.90;;;;;;4124038;28;20264;-61
2022/01/12 01:55:11;;;;;;;47.58;21.85;;;15.00;68.20;;;;;;4125309;28;20058;-61
2022/01/12 01:57:35;;;;;;;54.72;20.95;;;15.00;69.40;;;;;;4114467;28;20526;-60
2022/01/12 01:59:59;;;;;;;51.10;21.48;;;15.00;68.80;;;;;;4109456;28;20582;-61
2022/01/12 02:02:22;;;;;;;44.53;20.85;;;14.90;69.00;;;;;;4109928;28;20054;-60
2022/01/12 02:04:47;;;;;;;47.65;21.40;;;14.90;69.30;;;;;;4110024;28;20058;-61
2022/01/12 02:07:10;;;;;;;55.78;21.90;;;15.00;69.60;;;;;;4110994;28;20102;-61
2022/01/12 02:09:35;;;;;;;48.72;21.25;;;15.10;69.30;;;;;;4110275;28;20042;-61
2022/01/12 02:12:12;;;;;;;48.15;21.70;;;15.30;68.70;;;;;;4108927;28;20094;-61
2022/01/12 02:14:36;;;;;;;56.55;20.88;;;15.40;68.10;;;;;;4110160;28;20117;-61
2022/01/12 02:17:04;;;;;;;48.55;20.85;;;15.50;67.60;;;;;;4110294;28;20121;-62
2022/01/12 02:19:55;;;;;;;54.30;21.92;;;15.70;67.20;;;;;;4115719;28;20102;-62
2022/01/12 02:36:09;;;;;;;50.38;21.55;;;15.90;65.90;;;;;;4076013;29;20059;-61
2022/01/12 02:41:13;;;;;;;47.58;21.48;;;16.00;65.80;;;;;;4110342;28;20046;-61
2022/01/12 02:53:38;;;;;;;45.25;21.15;;;16.00;65.90;;;;;;4116801;28;20096;-69
2022/01/12 02:54:21;;;;;;;44.30;21.52;;;15.90;66.00;;;;;;4126036;28;20330;-68
2022/01/12 02:56:44;;;;;;;44.15;21.15;;;15.90;66.30;;;;;;4125256;28;20042;-68
2022/01/12 02:59:09;;;;;;;43.53;21.95;;;15.90;66.50;;;;;;4126864;28;20054;-69
2022/01/12 03:01:56;;;;;;;43.92;21.90;;;16.00;66.40;;;;;;4114679;28;20050;-68
2022/01/12 03:04:19;;;;;;;41.22;20.75;;;16.10;66.00;;;;;;4110086;28;20475;-68
2022/01/12 03:06:45;;;;;;;44.88;21.10;;;16.20;65.50;;;;;;4110479;28;20777;-69
2022/01/12 03:09:11;;;;;;;44.65;21.15;;;16.20;65.30;;;;;;4109837;28;20054;-68
2022/01/12 03:11:37;;;;;;;43.47;20.45;;;16.20;65.30;;;;;;4109240;28;20054;-69
2022/01/12 03:14:11;;;;;;;38.08;20.52;;;16.20;65.30;;;;;;4108543;28;20050;-68
2022/01/12 03:16:34;;;;;;;40.03;19.35;;;16.10;65.40;;;;;;4122613;28;20046;-68
2022/01/12 03:19:04;;;;;;;39.33;20.38;;;16.10;65.40;;;;;;4122660;28;20085;-68
2022/01/12 03:21:30;;;;;;;34.63;18.92;;;16.00;65.70;;;;;;4109318;28;20101;-68
2022/01/12 03:23:54;;;;;;;36.80;18.73;;;16.00;66.00;;;;;;4122110;28;20116;-67
2022/01/12 03:26:17;;;;;;;41.25;20.50;;;16.00;66.10;;;;;;4110260;28;20113;-68
2022/01/12 03:28:44;;;;;;;43.30;20.52;;;15.90;66.10;;;;;;4124945;28;20046;-68
2022/01/12 03:31:13;;;;;;;35.30;18.85;;;15.90;66.30;;;;;;4112331;28;20058;-67
2022/01/12 03:36:27;;;;;;;38.95;19.58;;;15.80;66.60;;;;;;4113197;28;20090;-68
2022/01/12 03:38:54;;;;;;;42.97;19.52;;;15.80;66.80;;;;;;4112767;28;20101;-68
2022/01/12 03:41:17;;;;;;;57.03;20.10;;;15.80;67.20;;;;;;4115171;28;20066;-68
2022/01/12 03:43:42;;;;;;;74.45;20.67;;;15.80;67.90;;;;;;4114266;28;20474;-68
2022/01/12 03:46:05;;;;;;;94.28;20.25;;;15.80;67.10;;;;;;4128171;28;20046;-68
2022/01/12 03:48:28;;;;;;;118.68;21.02;;;15.80;67.20;;;;;;4143962;28;20627;-69
2022/01/12 03:50:54;;;;;;;140.20;19.52;;;15.80;67.10;;;;;;4129957;28;20113;-69
2022/01/12 03:53:17;;;;;;;132.25;20.60;;;15.90;66.80;;;;;;4131515;28;20112;-69
2022/01/12 03:55:42;;;;;;;189.10;19.85;;;15.90;66.60;;;;;;4127287;28;20816;-67
2022/01/12 03:58:06;;;;;;;146.65;19.00;;;15.90;66.50;;;;;;4126452;28;20054;-68
2022/01/12 04:00:30;;;;;;;184.57;19.35;;;15.90;66.60;;;;;;4130190;28;20577;-68
2022/01/12 04:02:53;;;;;;;164.80;18.20;;;16.00;66.50;;;;;;4130206;28;20189;-67
2022/01/12 04:05:40;;;;;;;115.05;16.58;;;16.00;66.50;;;;;;4131474;28;20050;-69
2022/01/12 04:08:19;;;;;;;153.10;16.83;;;15.90;66.30;;;;;;4142813;28;20114;-69
2022/01/12 04:10:42;;;;;;;113.13;15.45;;;15.90;66.50;;;;;;4098522;28;20055;-68
2022/01/12 04:13:05;;;;;;;131.85;15.63;;;15.90;66.60;;;;;;4109110;28;20515;-68
2022/01/12 04:15:30;;;;;;;139.45;17.13;;;15.90;67.60;;;;;;4114058;28;20051;-68
2022/01/12 04:17:53;;;;;;;134.85;13.80;;;15.80;66.60;;;;;;4114223;28;20491;-68
2022/01/12 04:20:16;;;;;;;117.32;13.77;;;15.80;67.10;;;;;;4113709;28;20113;-68
2022/01/12 04:25:21;;;;;;;86.30;12.13;;;15.80;67.10;;;;;;4098783;28;20047;-68
2022/01/12 04:27:44;;;;;;;89.68;13.13;;;15.80;67.10;;;;;;4097595;28;20051;-68
2022/01/12 04:30:08;;;;;;;73.32;12.95;;;15.80;67.10;;;;;;4112366;28;20050;-67
2022/01/12 04:32:36;;;;;;;79.43;12.88;;;15.70;67.00;;;;;;4115162;28;20108;-68
2022/01/12 04:35:00;;;;;;;57.05;12.25;;;15.70;67.20;;;;;;4108733;28;20054;-68
2022/01/12 04:37:23;;;;;;;64.50;12.05;;;15.60;67.30;;;;;;4114656;28;20097;-68
2022/01/12 04:39:46;;;;;;;66.93;12.68;;;15.60;67.70;;;;;;4125210;28;20049;-67
2022/01/12 04:42:09;;;;;;;60.60;12.98;;;15.60;68.00;;;;;;4139012;28;20050;-67
2022/01/12 04:44:39;;;;;;;58.22;12.57;;;15.60;68.00;;;;;;4127454;28;20089;-67
2022/01/12 04:47:07;;;;;;;58.88;12.85;;;15.60;67.90;;;;;;4095409;28;20118;-68
2022/01/12 04:49:47;;;;;;;38.15;12.43;;;15.70;67.60;;;;;;4094549;28;20051;-68
2022/01/12 04:52:10;;;;;;;33.78;11.50;;;15.80;67.30;;;;;;4110595;28;20067;-67
2022/01/12 04:54:33;;;;;;;38.58;12.55;;;15.80;67.10;;;;;;4108421;28;20491;-68
2022/01/12 04:56:57;;;;;;;37.65;11.30;;;15.90;67.20;;;;;;4108519;28;20220;-68
2022/01/12 04:59:20;;;;;;;53.05;12.23;;;16.00;66.80;;;;;;4108490;28;20054;-68
2022/01/12 05:01:52;;;;;;;30.20;11.18;;;16.10;66.20;;;;;;4115424;28;20043;-68
2022/01/12 05:07:22;;;;;;;19.30;10.43;;;16.30;65.30;;;;;;4110280;28;19989;-67
2022/01/12 05:12:42;;;;;;;38.17;10.52;;;16.40;66.10;;;;;;4110377;28;20412;-68
2022/01/12 05:15:25;;;;;;;36.10;10.95;;;16.40;64.80;;;;;;4123968;28;20462;-66
2022/01/12 05:17:49;;;;;;;39.67;10.73;;;16.40;64.90;;;;;;4124439;28;20121;-68
2022/01/12 05:20:12;;;;;;;40.35;11.50;;;16.40;65.00;;;;;;4110644;28;20094;-67
2022/01/12 05:22:36;;;;;;;50.70;10.98;;;16.40;64.90;;;;;;4116436;28;20808;-68
2022/01/12 05:24:59;;;;;;;51.42;11.07;;;16.40;64.70;;;;;;4126147;28;20124;-68
2022/01/12 05:27:25;;;;;;;47.70;10.57;;;16.40;64.60;;;;;;4140033;28;20085;-66
2022/01/12 05:29:48;;;;;;;40.67;10.57;;;16.40;64.60;;;;;;4126649;28;20515;-68
2022/01/12 05:32:12;;;;;;;43.22;10.50;;;16.40;64.70;;;;;;4107969;28;20042;-67
2022/01/12 05:34:37;;;;;;;41.92;10.30;;;16.30;64.90;;;;;;4097916;28;20450;-67
2022/01/12 05:37:00;;;;;;;33.70;9.43;;;16.30;65.20;;;;;;4110683;28;20114;-68
2022/01/12 05:39:30;;;;;;;31.83;8.60;;;16.20;65.30;;;;;;4110310;28;20166;-68
2022/01/12 05:42:11;;;;;;;45.70;8.32;;;16.20;65.20;;;;;;4093186;28;20055;-68
2022/01/12 05:44:36;;;;;;;27.77;9.07;;;16.20;65.30;;;;;;4107762;28;20054;-69
2022/01/12 05:47:00;;;;;;;49.13;8.93;;;16.20;65.20;;;;;;4107821;28;20561;-68
2022/01/12 05:49:34;;;;;;;40.55;9.65;;;16.10;65.50;;;;;;4107752;28;20051;-68
2022/01/12 05:51:58;;;;;;;38.00;9.52;;;16.20;65.70;;;;;;4099173;28;20109;-67
2022/01/12 05:54:20;;;;;;;59.92;10.60;;;16.20;65.60;;;;;;4111187;28;20435;-68
2022/01/12 05:56:47;;;;;;;98.47;10.65;;;16.30;65.30;;;;;;4110029;28;20097;-68
2022/01/12 05:59:10;;;;;;;90.22;10.77;;;16.30;65.00;;;;;;4119011;28;20105;-68
2022/01/12 06:01:33;;;;;;;89.53;10.40;;;16.40;64.80;;;;;;4112631;28;20491;-68
2022/01/12 06:03:57;;;;;;;82.63;10.02;;;16.40;64.80;;;;;;4124104;28;20053;-68
2022/01/12 06:06:21;;;;;;;87.57;9.45;;;16.30;64.60;;;;;;4109613;28;20051;-68
2022/01/12 06:08:44;;;;;;;70.40;8.85;;;16.30;65.70;;;;;;4114945;28;20123;-68
2022/01/12 06:11:07;;;;;;;61.90;8.95;;;16.20;65.20;;;;;;4125479;28;20050;-68
2022/01/12 06:13:34;;;;;;;66.53;8.82;;;16.20;65.50;;;;;;4125887;28;20054;-68
2022/01/12 06:15:57;;;;;;;77.53;8.93;;;16.10;65.50;;;;;;4125636;28;20100;-68
2022/01/12 06:18:23;;;;;;;79.63;8.75;;;16.20;65.50;;;;;;4125100;28;20071;-68
2022/01/12 06:20:46;;;;;;;63.47;8.90;;;16.10;66.30;;;;;;4112316;28;20046;-68
2022/01/12 06:23:09;;;;;;;68.80;8.88;;;16.10;66.30;;;;;;4110762;28;20568;-69
2022/01/12 06:25:34;;;;;;;71.07;8.90;;;16.10;65.30;;;;;;4122405;28;20049;-68
2022/01/12 06:28:20;;;;;;;92.10;9.32;;;16.10;65.50;;;;;;4123108;28;20605;-68
2022/01/12 06:33:23;;;;;;;66.93;8.55;;;16.00;65.70;;;;;;4132217;28;20320;-68
2022/01/12 06:35:47;;;;;;;52.45;8.38;;;16.00;65.90;;;;;;4125413;28;20109;-67
2022/01/12 06:38:10;;;;;;;66.78;8.43;;;16.00;65.70;;;;;;4125352;28;20058;-67
2022/01/12 06:40:33;;;;;;;49.58;7.97;;;16.10;65.70;;;;;;4125415;28;20116;-68
2022/01/12 06:42:56;;;;;;;39.08;6.93;;;16.00;65.50;;;;;;4122623;28;20046;-68
2022/01/12 06:45:19;;;;;;;43.20;6.75;;;16.00;65.50;;;;;;4130094;28;20049;-67
2022/01/12 06:47:44;;;;;;;40.38;6.95;;;16.00;65.80;;;;;;4130669;28;20053;-68
2022/01/12 06:50:10;;;;;;;48.53;7.07;;;16.00;65.60;;;;;;4125125;28;20152;-68
2022/01/12 06:52:34;;;;;;;28.65;6.70;;;15.90;65.80;;;;;;4125165;28;20116;-68
2022/01/12 06:54:57;;;;;;;32.08;7.40;;;15.90;65.80;;;;;;4126208;28;20047;-68
2022/01/12 06:57:20;;;;;;;29.83;6.22;;;15.80;66.10;;;;;;4119407;28;20150;-68
2022/01/12 06:59:43;;;;;;;39.75;7.90;;;15.90;66.40;;;;;;4109970;28;20457;-68
2022/01/12 07:02:07;;;;;;;41.70;6.60;;;15.90;66.40;;;;;;4122655;28;20085;-68
2022/01/12 07:04:35;;;;;;;49.88;6.93;;;16.00;66.30;;;;;;4108708;28;20101;-69
2022/01/12 07:06:58;;;;;;;64.38;6.75;;;16.00;66.10;;;;;;4109095;28;20110;-69
2022/01/12 07:09:21;;;;;;;74.05;6.60;;;16.00;65.80;;;;;;4115526;28;20046;-68
2022/01/12 07:11:51;;;;;;;60.72;6.65;;;16.10;65.70;;;;;;4120827;28;20374;-69
2022/01/12 07:14:19;;;;;;;53.92;6.80;;;16.10;65.70;;;;;;4121963;28;20105;-65
2022/01/12 07:16:43;;;;;;;44.42;5.15;;;16.10;65.60;;;;;;4106658;28;20508;-68
2022/01/12 07:19:07;;;;;;;40.10;5.30;;;16.10;66.50;;;;;;4093145;28;20051;-69
2022/01/12 07:21:34;;;;;;;50.17;5.18;;;16.10;65.50;;;;;;4115384;28;20483;-69
2022/01/12 07:23:57;;;;;;;52.78;5.60;;;16.10;65.70;;;;;;4110324;28;20476;-68
2022/01/12 07:26:20;;;;;;;57.22;6.15;;;16.00;66.10;;;;;;4104170;28;20059;-67
2022/01/12 07:28:44;;;;;;;62.35;5.72;;;16.10;66.10;;;;;;4094314;28;20480;-68
2022/01/12 07:31:07;;;;;;;52.25;5.18;;;16.10;66.30;;;;;;4103563;28;20102;-68
2022/01/12 07:33:31;;;;;;;46.50;5.15;;;16.10;66.20;;;;;;4100842;28;20476;-68
2022/01/12 07:35:54;;;;;;;30.38;5.10;;;16.20;66.00;;;;;;4109859;28;20530;-68
2022/01/12 07:38:19;;;;;;;27.58;5.00;;;16.30;65.50;;;;;;4110245;28;20066;-68
2022/01/12 07:40:41;;;;;;;30.55;4.72;;;16.40;65.00;;;;;;4110332;28;20066;-68
2022/01/12 07:43:05;;;;;;;33.20;5.60;;;16.40;64.70;;;;;;4118792;28;20050;-68
2022/01/12 07:45:28;;;;;;;16.80;5.25;;;16.40;64.60;;;;;;4138057;28;20053;-69
2022/01/12 07:47:51;;;;;;;28.77;5.30;;;16.40;64.70;;;;;;4112338;28;20571;-68
2022/01/12 07:50:15;;;;;;;20.10;4.93;;;16.30;64.80;;;;;;4110179;28;20046;-68
2022/01/12 07:52:38;;;;;;;20.58;5.55;;;16.30;65.20;;;;;;4109669;28;20042;-68
2022/01/12 07:55:04;;;;;;;15.13;5.03;;;16.30;65.20;;;;;;4093286;28;20569;-68
2022/01/12 07:57:28;;;;;;;18.92;4.70;;;16.20;65.30;;;;;;4091996;28;20131;-67
2022/01/12 07:59:51;;;;;;;13.80;5.07;;;16.20;65.60;;;;;;4092061;28;20051;-68
2022/01/12 08:02:15;;;;;;;13.85;4.60;;;16.10;65.90;;;;;;4103346;28;20050;-69
2022/01/12 08:04:38;;;;;;;24.58;4.47;;;16.10;66.20;;;;;;4105294;28;20431;-68
2022/01/12 08:07:03;;;;;;;21.40;5.47;;;16.10;66.20;;;;;;4106004;28;20107;-68
2022/01/12 08:09:26;;;;;;;14.38;4.43;;;16.00;66.10;;;;;;4108188;28;20047;-68
2022/01/12 08:11:50;;;;;;;23.42;4.93;;;16.00;66.10;;;;;;4120967;28;20093;-66
2022/01/12 08:14:15;;;;;;;10.98;4.70;;;16.00;66.30;;;;;;4114492;28;20043;-68
2022/01/12 08:16:38;;;;;;;18.15;4.75;;;15.90;66.50;;;;;;4113739;28;20054;-68
2022/01/12 08:19:01;;;;;;;22.58;5.00;;;15.90;66.70;;;;;;4108142;28;20129;-67
2022/01/12 08:21:27;;;;;;;25.02;4.78;;;16.00;66.60;;;;;;4108577;28;20109;-62
2022/01/12 08:23:50;;;;;;;15.57;4.93;;;16.10;66.10;;;;;;4108681;28;20059;-65
2022/01/12 08:26:19;;;;;;;21.00;4.97;;;16.20;65.80;;;;;;4109741;28;20101;-69
2022/01/12 08:28:43;;;;;;;13.90;4.50;;;16.20;65.30;;;;;;4112360;28;20077;-68
2022/01/12 08:31:07;;;;;;;14.98;4.97;;;16.20;65.20;;;;;;4108842;28;20117;-68
2022/01/12 08:33:30;;;;;;;14.57;4.28;;;16.20;65.20;;;;;;4108537;28;20054;-68
2022/01/12 08:35:54;;;;;;;16.75;4.78;;;16.10;65.30;;;;;;4109142;28;20431;-68
2022/01/12 08:38:18;;;;;;;12.80;4.45;;;16.10;65.70;;;;;;4112304;28;21053;-68
2022/01/12 08:40:42;;;;;;;13.68;4.32;;;16.10;65.90;;;;;;4110493;28;20054;-68
2022/01/12 08:43:05;;;;;;;16.02;4.65;;;16.00;66.20;;;;;;4110179;28;20054;-69
2022/01/12 08:45:30;;;;;;;19.75;4.80;;;16.00;66.30;;;;;;4112498;28;20270;-69
2022/01/12 08:47:53;;;;;;;21.25;4.93;;;16.00;66.30;;;;;;4110376;28;20101;-68
2022/01/12 08:50:17;;;;;;;12.35;4.63;;;15.90;66.20;;;;;;4112048;28;20121;-68
2022/01/12 08:52:45;;;;;;;12.52;4.10;;;15.90;66.40;;;;;;4110776;28;20674;-68
2022/01/12 08:55:08;;;;;;;18.50;4.03;;;15.80;66.50;;;;;;4117311;28;21116;-68
2022/01/12 08:57:31;;;;;;;20.50;4.20;;;15.80;66.70;;;;;;4109977;28;20050;-69
2022/01/12 08:59:54;;;;;;;15.75;4.20;;;15.80;66.70;;;;;;4110024;28;20455;-68
2022/01/12 09:02:19;;;;;;;13.80;3.72;;;15.80;66.90;;;;;;4121889;28;20105;-68
2022/01/12 09:04:43;;;;;;;25.10;3.75;;;15.70;67.10;;;;;;4109772;28;20106;-68
2022/01/12 09:07:08;;;;;;;17.00;4.88;;;15.70;67.20;;;;;;4112740;28;20054;-69
2022/01/12 09:09:32;;;;;;;17.05;4.00;;;15.70;67.20;;;;;;4122480;28;20104;-68
2022/01/12 09:11:55;;;;;;;15.70;4.63;;;15.80;67.10;;;;;;4108407;28;20051;-68
2022/01/12 09:14:19;;;;;;;24.65;3.97;;;15.80;66.80;;;;;;4109984;28;20105;-68
2022/01/12 09:16:42;;;;;;;19.42;4.35;;;15.80;66.90;;;;;;4109552;28;20113;-68
2022/01/12 09:19:07;;;;;;;24.33;4.28;;;15.90;66.90;;;;;;4113912;28;20329;-68
2022/01/12 09:21:30;;;;;;;24.05;3.80;;;15.80;66.60;;;;;;4109454;28;20380;-66
2022/01/12 09:23:53;;;;;;;20.05;3.75;;;15.80;66.80;;;;;;4109457;28;20046;-68
2022/01/12 09:26:16;;;;;;;28.90;4.13;;;15.90;66.80;;;;;;4108972;28;20125;-68
2022/01/12 09:28:40;;;;;;;18.17;3.58;;;15.80;66.60;;;;;;4111878;28;20051;-68
2022/01/12 09:31:03;;;;;;;19.02;3.60;;;15.80;66.80;;;;;;4107818;28;20051;-69
2022/01/12 09:33:26;;;;;;;29.92;3.88;;;15.70;67.10;;;;;;4107999;28;20471;-69
2022/01/12 09:35:53;;;;;;;24.95;3.33;;;15.70;67.20;;;;;;4124490;28;20054;-68
2022/01/12 09:38:16;;;;;;;29.58;4.00;;;15.70;67.30;;;;;;4124965;28;20510;-69
2022/01/12 09:40:39;;;;;;;18.88;3.63;;;15.60;67.50;;;;;;4125016;28;20509;-68
2022/01/12 09:43:05;;;;;;;26.60;4.15;;;15.70;67.50;;;;;;4110920;28;20660;-68
2022/01/12 09:45:28;;;;;;;29.15;4.13;;;15.70;67.40;;;;;;4111505;28;20058;-68
2022/01/12 09:47:52;;;;;;;20.50;3.67;;;15.70;67.50;;;;;;4109346;28;20058;-68
2022/01/12 09:50:17;;;;;;;31.90;4.03;;;15.60;67.50;;;;;;4109696;28;20153;-67
2022/01/12 09:52:41;;;;;;;22.52;3.50;;;15.60;67.60;;;;;;4109199;28;20043;-69
2022/01/12 09:55:05;;;;;;;38.78;3.80;;;15.60;67.70;;;;;;4114450;28;20066;-68
2022/01/12 09:57:28;;;;;;;31.33;3.65;;;15.60;67.80;;;;;;4123041;28;20054;-69
2022/01/12 09:59:51;;;;;;;28.17;3.88;;;15.60;67.60;;;;;;4118463;28;20053;-69
2022/01/12 10:02:16;;;;;;;31.10;3.67;;;15.60;67.80;;;;;;4113147;28;20114;-69
2022/01/12 10:04:39;;;;;;;28.17;4.30;;;15.60;67.80;;;;;;4108965;28;20478;-69
2022/01/12 10:07:05;;;;;;;43.13;4.55;;;15.60;68.10;;;;;;4106985;28;20058;-66
2022/01/12 10:09:35;;;;;;;39.33;5.30;;;15.60;68.20;;;;;;4109016;28;20105;-69
2022/01/12 10:12:00;;;;;;;37.75;4.85;;;15.70;67.90;;;;;;4108482;28;20059;-69
2022/01/12 10:14:26;;;;;;;51.08;4.57;;;15.70;68.10;;;;;;4106864;28;20109;-69
2022/01/12 10:16:54;;;;;;;39.70;3.92;;;15.70;68.20;;;;;;4111219;28;20046;-69
2022/01/12 10:19:26;;;;;;;35.25;3.38;;;15.70;68.30;;;;;;4110508;28;21775;-68
2022/01/12 10:21:51;;;;;;;27.55;3.15;;;15.70;68.10;;;;;;4109256;28;20058;-68
2022/01/12 10:24:18;;;;;;;33.42;4.30;;;15.70;68.10;;;;;;4123836;28;20120;-68
2022/01/12 10:26:44;;;;;;;50.60;4.13;;;15.70;68.10;;;;;;4119403;28;20507;-69
2022/01/12 10:29:11;;;;;;;34.90;3.45;;;15.70;68.20;;;;;;4120693;28;20058;-69
2022/01/12 10:31:49;;;;;;;24.67;2.90;;;15.70;68.40;;;;;;4107824;28;20050;-68
2022/01/12 10:34:15;;;;;;;25.13;3.25;;;15.80;68.10;;;;;;4110211;28;20058;-69
2022/01/12 10:36:39;;;;;;;33.50;3.22;;;15.80;68.00;;;;;;4118073;28;20498;-66
2022/01/12 10:39:06;;;;;;;27.27;3.33;;;15.90;67.90;;;;;;4108177;28;21003;-67
2022/01/12 10:41:30;;;;;;;20.30;2.83;;;15.90;68.30;;;;;;4107613;28;20055;-67
2022/01/12 10:43:54;;;;;;;21.58;3.53;;;15.90;68.50;;;;;;4108425;28;20185;-66
2022/01/12 10:46:20;;;;;;;26.10;3.30;;;15.90;68.40;;;;;;4107955;28;20133;-67
2022/01/12 10:48:45;;;;;;;22.77;2.95;;;15.90;68.30;;;;;;4110628;28;20101;-67
2022/01/12 10:51:09;;;;;;;9.77;3.10;;;16.00;69.10;;;;;;4113529;28;20050;-67
2022/01/12 10:53:33;;;;;;;19.40;3.40;;;16.00;68.20;;;;;;4108239;28;20055;-67
2022/01/12 10:56:05;;;;;;;20.67;3.45;;;15.90;68.00;;;;;;4107617;28;20054;-67
2022/01/12 10:58:28;;;;;;;16.10;3.83;;;15.90;68.30;;;;;;4107297;28;20055;-67
2022/01/12 11:00:53;;;;;;;23.30;4.25;;;15.90;68.40;;;;;;4108284;28;20049;-67
2022/01/12 11:03:16;;;;;;;15.88;3.60;;;15.90;68.60;;;;;;4113544;28;20113;-67
2022/01/12 11:05:39;;;;;;;27.60;3.50;;;15.90;68.70;;;;;;4109440;28;20475;-67
2022/01/12 11:08:02;;;;;;;15.02;3.03;;;15.90;68.60;;;;;;4111415;28;20054;-67
2022/01/12 11:10:27;;;;;;;19.30;3.72;;;15.90;68.50;;;;;;4110039;28;20881;-67
2022/01/12 11:12:51;;;;;;;23.45;3.30;;;15.90;68.30;;;;;;4111641;28;20113;-67
2022/01/12 11:15:16;;;;;;;24.67;3.85;;;16.00;68.20;;;;;;4108352;28;20058;-67
2022/01/12 11:17:43;;;;;;;25.98;4.18;;;16.00;68.00;;;;;;4109328;28;20462;-67
2022/01/12 11:20:16;;;;;;;18.73;3.75;;;16.00;67.90;;;;;;4106636;28;20054;-67
2022/01/12 11:22:54;;;;;;;19.15;3.92;;;16.00;67.90;;;;;;4109044;28;20054;-67
2022/01/12 11:25:20;;;;;;;15.98;3.22;;;16.00;67.90;;;;;;4107435;28;20059;-67
2022/01/12 11:27:44;;;;;;;15.05;3.92;;;16.00;68.10;;;;;;4112899;28;20434;-66
2022/01/12 11:30:22;;;;;;;14.00;4.15;;;15.90;68.30;;;;;;4116203;28;20073;-67
2022/01/12 11:32:56;;;;;;;14.25;3.67;;;15.90;68.40;;;;;;4111392;28;20050;-67
2022/01/12 11:35:26;;;;;;;13.50;3.72;;;15.80;68.70;;;;;;4107520;28;20046;-68
2022/01/12 11:37:49;;;;;;;17.70;3.50;;;15.80;68.90;;;;;;4108127;28;20062;-68
2022/01/12 11:40:13;;;;;;;9.07;3.40;;;15.90;69.00;;;;;;4109478;28;20535;-68
2022/01/12 11:42:37;;;;;;;11.02;3.35;;;15.90;68.90;;;;;;4113386;28;20474;-68
2022/01/12 11:45:00;;;;;;;9.60;4.30;;;15.90;68.90;;;;;;4123543;28;20524;-67
2022/01/12 11:47:26;;;;;;;10.70;3.83;;;15.90;68.70;;;;;;4107950;28;20046;-66
2022/01/12 11:49:53;;;;;;;12.77;3.83;;;15.90;68.80;;;;;;4109276;28;20051;-68
2022/01/12 11:52:18;;;;;;;10.23;3.67;;;16.00;68.80;;;;;;4111293;28;20925;-68
2022/01/12 11:54:45;;;;;;;16.83;4.35;;;15.90;68.60;;;;;;4110976;28;20106;-67
2022/01/12 11:57:11;;;;;;;20.15;4.70;;;15.90;68.60;;;;;;4111460;28;20051;-67
2022/01/12 11:59:53;;;;;;;11.70;4.20;;;15.90;68.60;;;;;;4115087;28;20054;-68
2022/01/12 12:02:17;;;;;;;13.25;4.63;;;15.90;68.70;;;;;;4109857;28;20106;-67
2022/01/12 12:04:52;;;;;;;12.30;5.68;;;15.90;68.90;;;;;;4114987;28;20340;-67
2022/01/12 12:07:17;;;;;;;11.48;5.18;;;15.90;68.90;;;;;;4120213;28;20055;-71
2022/01/12 12:09:46;;;;;;;14.40;5.80;;;15.90;68.90;;;;;;4115683;28;20117;-67
2022/01/12 12:12:17;;;;;;;15.38;7.65;;;15.90;68.80;;;;;;4113950;28;20554;-68
2022/01/12 12:14:50;;;;;;;34.58;17.27;;;15.80;68.90;;;;;;4121040;28;20580;-68
2022/01/12 12:17:22;;;;;;;12.40;6.53;;;15.80;69.10;;;;;;4119722;28;20104;-68
2022/01/12 12:19:46;;;;;;;13.65;6.65;;;15.80;69.30;;;;;;4110323;28;20055;-67
2022/01/12 12:22:15;;;;;;;10.68;4.88;;;15.70;69.40;;;;;;4114959;28;20372;-67
2022/01/12 12:24:40;;;;;;;15.00;5.82;;;15.70;69.80;;;;;;4125616;28;20054;-69
2022/01/12 12:27:04;;;;;;;15.60;5.50;;;15.70;70.20;;;;;;4110158;28;20047;-67
2022/01/12 12:29:28;;;;;;;12.50;6.03;;;15.70;70.10;;;;;;4109918;28;20051;-67
2022/01/12 12:31:52;;;;;;;15.98;5.65;;;15.70;70.10;;;;;;4114860;28;20050;-68
2022/01/12 12:34:17;;;;;;;9.57;5.25;;;15.70;70.00;;;;;;4113695;28;20058;-66
2022/01/12 12:36:40;;;;;;;15.20;5.95;;;15.70;70.10;;;;;;4123806;28;20935;-66
2022/01/12 12:39:12;;;;;;;14.65;5.50;;;15.60;70.10;;;;;;4110993;28;20047;-67
2022/01/12 12:41:49;;;;;;;13.00;5.85;;;15.60;70.20;;;;;;4106172;28;20058;-67
2022/01/12 12:44:22;;;;;;;9.45;5.22;;;15.60;70.20;;;;;;4120099;28;20078;-67
2022/01/12 12:46:45;;;;;;;12.02;6.28;;;15.60;70.40;;;;;;4117033;28;20116;-66
2022/01/12 12:49:10;;;;;;;12.27;6.03;;;15.60;70.30;;;;;;4125965;28;20553;-66
2022/01/12 12:51:33;;;;;;;14.93;6.40;;;15.60;70.20;;;;;;4109977;28;20059;-66
2022/01/12 12:53:58;;;;;;;11.20;5.95;;;15.60;70.30;;;;;;4110786;28;20050;-66
2022/01/12 12:56:27;;;;;;;10.07;5.90;;;15.60;70.40;;;;;;4122297;28;20058;-66
2022/01/12 12:58:52;;;;;;;10.63;5.68;;;15.60;70.50;;;;;;4115009;28;20435;-66
2022/01/12 13:01:17;;;;;;;11.48;6.10;;;15.60;70.60;;;;;;4109139;28;20050;-66
2022/01/12 13:03:48;;;;;;;10.30;6.55;;;15.60;70.60;;;;;;4109956;28;20117;-66
2022/01/12 13:06:22;;;;;;;12.30;5.97;;;15.60;70.70;;;;;;4115302;28;20051;-67
2022/01/12 13:08:52;;;;;;;11.30;6.43;;;15.60;70.80;;;;;;4112452;28;20042;-66
2022/01/12 13:11:15;;;;;;;10.57;6.32;;;15.60;70.90;;;;;;4111174;28;20046;-66
2022/01/12 13:13:38;;;;;;;16.90;7.05;;;15.60;70.90;;;;;;4116980;28;20099;-67
2022/01/12 13:16:07;;;;;;;11.38;6.25;;;15.60;71.00;;;;;;4112818;28;20103;-66
2022/01/12 13:18:39;;;;;;;22.98;7.22;;;15.60;71.30;;;;;;4111556;28;20431;-65
2022/01/12 13:21:08;;;;;;;12.23;6.03;;;15.60;71.30;;;;;;4111599;28;20550;-68
2022/01/12 13:23:32;;;;;;;11.38;5.65;;;15.60;71.30;;;;;;4110213;28;20105;-65
2022/01/12 13:26:01;;;;;;;15.80;6.20;;;15.60;71.10;;;;;;4109456;28;20069;-66
2022/01/12 13:28:24;;;;;;;22.73;6.55;;;15.70;70.90;;;;;;4117977;28;20454;-66